createdAt,value
2018-12-14T00:00:18.884Z,25.50
2018-12-14T00:01:18.886Z,27.60
2018-12-14T00:03:18.887Z,25.60
2018-12-14T00:04:18.888Z,26.50
2018-12-14T00:05:18.885Z,27.20
2018-12-14T00:06:18.890Z,27.20
2018-12-14T00:07:18.886Z,26.40
2018-12-14T00:08:18.933Z,27.30
2018-12-14T00:09:18.901Z,28.20
2018-12-14T00:10:18.882Z,26.70
2018-12-14T00:11:18.893Z,27.90
2018-12-14T00:12:18.896Z,26.40
2018-12-14T00:13:18.889Z,26.40
2018-12-14T00:14:18.890Z,28.50
2018-12-14T00:15:18.893Z,26.10
2018-12-14T00:16:18.897Z,25.30
2018-12-14T00:17:18.892Z,24.30
2018-12-14T00:18:18.895Z,26.90
2018-12-14T00:19:18.894Z,29.00
2018-12-14T00:20:18.898Z,24.90
2018-12-14T00:21:18.906Z,28.20
2018-12-14T00:23:18.903Z,25.70
2018-12-14T00:24:18.901Z,27.80
2018-12-14T00:25:18.894Z,26.90
2018-12-14T00:26:18.902Z,27.00
2018-12-14T00:27:18.901Z,27.80
2018-12-14T00:28:18.911Z,26.30
2018-12-14T00:29:18.908Z,27.10
2018-12-14T00:30:18.898Z,28.80
2018-12-14T00:31:18.906Z,29.80
2018-12-14T00:32:18.912Z,28.10
2018-12-14T00:33:18.902Z,29.70
2018-12-14T00:34:18.903Z,31.50
2018-12-14T00:35:18.903Z,30.60
2018-12-14T00:36:18.910Z,30.00
2018-12-14T00:37:18.916Z,30.10
2018-12-14T00:38:18.916Z,31.90
2018-12-14T00:39:18.906Z,30.70
2018-12-14T00:40:18.910Z,31.40
2018-12-14T00:41:18.907Z,31.50
2018-12-14T00:42:18.940Z,29.20
2018-12-14T00:43:18.918Z,30.70
2018-12-14T00:44:18.909Z,29.30
2018-12-14T00:45:18.922Z,31.20
2018-12-14T00:46:18.906Z,30.80
2018-12-14T00:47:18.915Z,29.60
2018-12-14T00:48:18.915Z,31.10
2018-12-14T00:49:18.912Z,30.20
2018-12-14T00:50:18.911Z,29.90
2018-12-14T00:51:18.925Z,31.60
2018-12-14T00:52:18.914Z,31.80
2018-12-14T00:53:18.915Z,30.60
2018-12-14T00:54:18.915Z,31.00
2018-12-14T00:55:18.925Z,33.40
2018-12-14T00:56:18.918Z,28.50
2018-12-14T00:57:18.920Z,30.20
2018-12-14T00:58:18.917Z,32.20
2018-12-14T00:59:18.922Z,32.30
2018-12-14T01:00:18.918Z,30.00
2018-12-14T01:01:18.918Z,30.80
2018-12-14T01:02:18.925Z,32.80
2018-12-14T01:03:18.918Z,31.30
2018-12-14T01:04:18.924Z,32.50
2018-12-14T01:05:18.922Z,33.90
2018-12-14T01:06:18.932Z,33.90
2018-12-14T01:07:18.928Z,30.90
2018-12-14T01:08:18.927Z,29.60
2018-12-14T01:09:18.921Z,30.20
2018-12-14T01:10:18.922Z,34.50
2018-12-14T01:11:18.936Z,30.80
2018-12-14T01:12:18.927Z,31.10
2018-12-14T01:13:18.925Z,28.30
2018-12-14T01:14:18.926Z,29.10
2018-12-14T01:15:18.926Z,29.60
2018-12-14T01:16:18.934Z,32.50
2018-12-14T01:17:18.933Z,28.20
2018-12-14T01:18:18.928Z,33.00
2018-12-14T01:19:18.928Z,30.30
2018-12-14T01:20:18.928Z,30.90
2018-12-14T01:21:18.927Z,31.90
2018-12-14T01:22:18.934Z,29.70
2018-12-14T01:23:18.957Z,30.60
2018-12-14T01:24:18.934Z,29.90
2018-12-14T01:25:18.927Z,31.10
2018-12-14T01:26:18.929Z,29.60
2018-12-14T01:27:18.930Z,30.40
2018-12-14T01:28:18.929Z,29.10
2018-12-14T01:29:18.934Z,30.30
2018-12-14T01:30:18.938Z,31.60
2018-12-14T01:31:18.932Z,32.60
2018-12-14T01:32:18.936Z,30.70
2018-12-14T01:33:18.934Z,33.00
2018-12-14T01:34:18.934Z,32.90
2018-12-14T01:35:18.934Z,30.50
2018-12-14T01:36:18.936Z,29.70
2018-12-14T01:37:18.935Z,30.50
2018-12-14T01:38:18.938Z,29.90
2018-12-14T01:39:18.944Z,30.60
2018-12-14T01:40:18.936Z,32.30
2018-12-14T01:41:18.953Z,31.80
2018-12-14T01:42:18.946Z,33.20
2018-12-14T01:43:18.938Z,30.50
2018-12-14T01:44:18.934Z,33.00
2018-12-14T01:45:18.941Z,33.00
2018-12-14T01:46:18.943Z,35.30
2018-12-14T01:47:18.946Z,31.10
2018-12-14T01:48:18.947Z,31.50
2018-12-14T01:49:18.944Z,30.70
2018-12-14T01:50:18.947Z,32.40
2018-12-14T01:51:18.944Z,30.30
2018-12-14T01:52:18.963Z,31.60
2018-12-14T01:53:18.944Z,33.50
2018-12-14T01:54:18.947Z,31.10
2018-12-14T01:55:18.954Z,32.60
2018-12-14T01:56:18.944Z,33.20
2018-12-14T01:57:18.944Z,34.20
2018-12-14T01:58:18.944Z,32.90
2018-12-14T01:59:18.945Z,33.20
2018-12-14T02:00:18.945Z,33.30
2018-12-14T02:01:18.944Z,34.00
2018-12-14T02:02:18.936Z,35.00
2018-12-14T02:03:18.943Z,32.50
2018-12-14T02:04:18.949Z,33.30
2018-12-14T02:05:18.950Z,34.60
2018-12-14T02:06:18.950Z,32.30
2018-12-14T02:07:18.947Z,34.30
2018-12-14T02:08:18.955Z,32.00
2018-12-14T02:09:18.949Z,33.60
2018-12-14T02:10:18.957Z,32.30
2018-12-14T02:11:18.954Z,32.80
2018-12-14T02:12:18.970Z,31.20
2018-12-14T02:13:18.951Z,34.50
2018-12-14T02:14:18.954Z,33.30
2018-12-14T02:15:18.951Z,33.30
2018-12-14T02:16:18.950Z,33.00
2018-12-14T02:17:18.956Z,34.90
2018-12-14T02:18:18.950Z,33.30
2018-12-14T02:19:18.946Z,38.70
2018-12-14T02:20:18.962Z,34.00
2018-12-14T02:21:18.960Z,35.40
2018-12-14T02:22:18.954Z,35.50
2018-12-14T02:23:18.957Z,32.90
2018-12-14T02:24:18.956Z,34.90
2018-12-14T02:25:18.953Z,35.80
2018-12-14T02:26:18.956Z,34.90
2018-12-14T02:27:18.959Z,35.40
2018-12-14T02:28:18.960Z,33.60
2018-12-14T02:29:18.973Z,35.00
2018-12-14T02:30:18.975Z,36.20
2018-12-14T02:31:18.964Z,34.30
2018-12-14T02:32:18.950Z,36.20
2018-12-14T02:33:18.960Z,34.10
2018-12-14T02:34:18.953Z,35.30
2018-12-14T02:35:18.954Z,35.00
2018-12-14T02:36:18.963Z,35.80
2018-12-14T02:37:18.955Z,35.60
2018-12-14T02:38:18.964Z,35.50
2018-12-14T02:39:18.954Z,35.60
2018-12-14T02:40:18.963Z,34.80
2018-12-14T02:41:18.970Z,35.80
2018-12-14T02:42:19.356Z,33.40
2018-12-14T02:43:18.968Z,34.80
2018-12-14T02:44:18.966Z,37.20
2018-12-14T02:45:18.950Z,36.60
2018-12-14T02:47:18.959Z,40.10
2018-12-14T02:48:18.960Z,35.90
2018-12-14T02:49:18.963Z,38.20
2018-12-14T02:50:18.966Z,39.00
2018-12-14T02:51:18.966Z,37.80
2018-12-14T02:52:18.979Z,37.40
2018-12-14T02:53:18.961Z,39.00
2018-12-14T02:54:18.970Z,40.00
2018-12-14T02:55:18.968Z,36.20
2018-12-14T02:56:18.961Z,38.30
2018-12-14T02:58:19.048Z,35.30
2018-12-14T02:59:18.960Z,34.80
2018-12-14T03:00:18.965Z,39.40
2018-12-14T03:01:18.966Z,38.50
2018-12-14T03:02:18.967Z,37.10
2018-12-14T03:03:18.970Z,35.50
2018-12-14T03:04:18.963Z,36.30
2018-12-14T03:05:18.964Z,37.80
2018-12-14T03:06:18.975Z,39.60
2018-12-14T03:07:18.966Z,35.30
2018-12-14T03:08:18.969Z,35.90
2018-12-14T03:09:18.977Z,35.60
2018-12-14T03:10:18.982Z,36.60
2018-12-14T03:11:18.970Z,36.80
2018-12-14T03:12:18.983Z,38.00
2018-12-14T03:13:18.972Z,34.80
2018-12-14T03:14:18.973Z,34.10
2018-12-14T03:15:18.972Z,31.40
2018-12-14T03:16:18.967Z,38.20
2018-12-14T03:17:18.967Z,37.20
2018-12-14T03:18:18.965Z,40.00
2018-12-14T03:19:18.977Z,35.20
2018-12-14T03:20:19.007Z,36.20
2018-12-14T03:21:18.993Z,38.30
2018-12-14T03:22:18.970Z,35.90
2018-12-14T03:23:18.975Z,38.40
2018-12-14T03:24:18.983Z,34.90
2018-12-14T03:25:18.976Z,36.40
2018-12-14T03:26:18.977Z,35.30
2018-12-14T03:27:18.980Z,36.00
2018-12-14T03:28:18.999Z,33.10
2018-12-14T03:29:18.981Z,36.40
2018-12-14T03:30:18.979Z,32.40
2018-12-14T03:31:18.974Z,38.70
2018-12-14T03:32:18.972Z,34.10
2018-12-14T03:33:19.037Z,34.50
2018-12-14T03:34:18.977Z,37.00
2018-12-14T03:35:18.991Z,36.50
2018-12-14T03:36:18.975Z,33.10
2018-12-14T03:37:18.983Z,34.70
2018-12-14T03:38:18.982Z,36.40
2018-12-14T03:39:18.991Z,34.00
2018-12-14T03:40:18.987Z,32.50
2018-12-14T03:41:18.986Z,37.90
2018-12-14T03:42:18.984Z,35.80
2018-12-14T03:43:18.989Z,34.20
2018-12-14T03:45:19.004Z,35.20
2018-12-14T03:46:18.984Z,33.10
2018-12-14T03:47:19.027Z,33.90
2018-12-14T03:48:18.983Z,34.50
2018-12-14T03:49:18.984Z,34.50
2018-12-14T03:50:18.978Z,38.90
2018-12-14T03:51:18.984Z,34.60
2018-12-14T03:52:18.992Z,30.20
2018-12-14T03:53:18.990Z,34.30
2018-12-14T03:54:19.018Z,32.60
2018-12-14T03:55:19.012Z,36.50
2018-12-14T03:56:18.995Z,34.40
2018-12-14T03:57:18.990Z,31.20
2018-12-14T03:58:18.989Z,35.50
2018-12-14T03:59:18.996Z,34.40
2018-12-14T04:00:18.998Z,33.70
2018-12-14T04:01:19.006Z,33.60
2018-12-14T04:02:18.997Z,32.90
2018-12-14T04:03:18.994Z,34.40
2018-12-14T04:04:18.996Z,33.50
2018-12-14T04:05:18.999Z,32.50
2018-12-14T04:06:19.007Z,33.00
2018-12-14T04:07:18.995Z,35.10
2018-12-14T04:08:19.006Z,31.10
2018-12-14T04:09:19.010Z,35.10
2018-12-14T04:10:19.014Z,34.20
2018-12-14T04:11:19.004Z,34.20
2018-12-14T04:12:18.993Z,34.10
2018-12-14T04:13:19.007Z,32.40
2018-12-14T04:14:19.011Z,34.40
2018-12-14T04:15:19.006Z,34.50
2018-12-14T04:16:19.007Z,31.10
2018-12-14T04:17:19.008Z,33.70
2018-12-14T04:18:19.031Z,36.30
2018-12-14T04:19:19.017Z,35.00
2018-12-14T04:20:19.008Z,33.60
2018-12-14T04:21:19.012Z,33.70
2018-12-14T04:22:19.015Z,34.10
2018-12-14T04:23:19.010Z,34.70
2018-12-14T04:24:19.007Z,36.50
2018-12-14T04:25:19.013Z,33.70
2018-12-14T04:26:19.017Z,34.20
2018-12-14T04:27:19.015Z,32.10
2018-12-14T04:28:19.013Z,34.00
2018-12-14T04:29:19.016Z,32.20
2018-12-14T04:30:19.013Z,36.00
2018-12-14T04:31:19.017Z,36.30
2018-12-14T04:32:19.023Z,39.10
2018-12-14T04:33:19.030Z,35.30
2018-12-14T04:34:19.017Z,35.70
2018-12-14T04:35:19.025Z,38.30
2018-12-14T04:36:19.027Z,36.80
2018-12-14T04:37:19.014Z,35.50
2018-12-14T04:38:19.017Z,37.40
2018-12-14T04:39:19.020Z,38.60
2018-12-14T04:40:19.014Z,35.90
2018-12-14T04:41:19.025Z,39.40
2018-12-14T04:42:19.031Z,35.20
2018-12-14T04:43:19.028Z,35.70
2018-12-14T04:44:19.022Z,37.60
2018-12-14T04:45:19.024Z,36.90
2018-12-14T04:46:19.023Z,38.90
2018-12-14T04:47:19.026Z,34.10
2018-12-14T04:48:19.029Z,37.10
2018-12-14T04:49:19.032Z,37.90
2018-12-14T04:50:19.027Z,35.60
2018-12-14T04:51:19.028Z,37.50
2018-12-14T04:52:19.026Z,37.40
2018-12-14T04:53:19.021Z,35.80
2018-12-14T04:54:19.025Z,36.60
2018-12-14T04:55:19.024Z,35.40
2018-12-14T04:56:19.030Z,37.00
2018-12-14T04:57:19.040Z,38.20
2018-12-14T04:58:19.030Z,36.50
2018-12-14T04:59:19.031Z,38.80
2018-12-14T05:00:19.032Z,39.20
2018-12-14T05:01:19.030Z,38.20
2018-12-14T05:02:19.029Z,37.90
2018-12-14T05:03:19.026Z,38.30
2018-12-14T05:04:19.031Z,38.40
2018-12-14T05:06:19.033Z,39.20
2018-12-14T05:07:19.045Z,38.90
2018-12-14T05:08:19.028Z,41.30
2018-12-14T05:09:19.029Z,39.10
2018-12-14T05:10:19.020Z,36.40
2018-12-14T05:11:19.027Z,36.70
2018-12-14T05:12:19.033Z,41.20
2018-12-14T05:13:19.048Z,37.90
2018-12-14T05:14:19.031Z,37.80
2018-12-14T05:15:19.033Z,39.90
2018-12-14T05:16:19.034Z,41.10
2018-12-14T05:17:19.094Z,40.20
2018-12-14T05:18:19.039Z,38.30
2018-12-14T05:19:19.032Z,38.20
2018-12-14T05:20:19.042Z,37.30
2018-12-14T05:21:19.031Z,37.40
2018-12-14T05:22:19.030Z,36.50
2018-12-14T05:23:19.030Z,39.40
2018-12-14T05:25:19.039Z,40.10
2018-12-14T05:26:19.032Z,39.80
2018-12-14T05:27:19.037Z,37.60
2018-12-14T05:28:19.042Z,38.80
2018-12-14T05:29:19.036Z,39.50
2018-12-14T05:30:19.037Z,39.10
2018-12-14T05:31:19.050Z,39.20
2018-12-14T05:32:19.041Z,39.60
2018-12-14T05:33:19.032Z,39.80
2018-12-14T05:34:19.150Z,37.80
2018-12-14T05:35:19.042Z,36.30
2018-12-14T05:36:19.040Z,38.70
2018-12-14T05:37:19.043Z,40.30
2018-12-14T05:39:19.039Z,37.00
2018-12-14T05:40:19.048Z,40.80
2018-12-14T05:41:19.039Z,37.70
2018-12-14T05:42:19.040Z,39.60
2018-12-14T05:43:19.036Z,40.90
2018-12-14T05:44:19.039Z,40.70
2018-12-14T05:45:19.040Z,39.30
2018-12-14T05:46:19.035Z,40.00
2018-12-14T05:47:19.036Z,38.90
2018-12-14T05:48:19.042Z,39.20
2018-12-14T05:49:19.042Z,41.20
2018-12-14T05:50:19.065Z,42.50
2018-12-14T05:51:19.075Z,37.90
2018-12-14T05:52:19.039Z,39.50
2018-12-14T05:53:19.039Z,43.10
2018-12-14T05:54:19.036Z,38.30
2018-12-14T05:55:19.039Z,37.40
2018-12-14T05:56:19.043Z,40.00
2018-12-14T05:57:19.039Z,39.70
2018-12-14T05:58:19.049Z,36.00
2018-12-14T05:59:19.039Z,36.30
2018-12-14T06:00:19.045Z,38.30
2018-12-14T06:01:19.040Z,40.90
2018-12-14T06:02:19.048Z,41.10
2018-12-14T06:03:19.055Z,39.80
2018-12-14T06:04:19.048Z,36.00
2018-12-14T06:05:19.036Z,39.30
2018-12-14T06:06:19.042Z,42.20
2018-12-14T06:07:19.040Z,43.30
2018-12-14T06:08:19.039Z,38.60
2018-12-14T06:09:19.043Z,41.30
2018-12-14T06:10:19.046Z,39.80
2018-12-14T06:11:19.046Z,39.50
2018-12-14T06:12:19.043Z,40.30
2018-12-14T06:13:19.046Z,38.80
2018-12-14T06:14:19.040Z,38.20
2018-12-14T06:15:19.056Z,38.00
2018-12-14T06:16:19.043Z,41.10
2018-12-14T06:17:19.045Z,39.80
2018-12-14T06:18:19.053Z,42.80
2018-12-14T06:19:19.055Z,39.60
2018-12-14T06:20:19.064Z,41.10
2018-12-14T06:21:19.042Z,39.50
2018-12-14T06:22:19.048Z,37.40
2018-12-14T06:23:19.046Z,40.90
2018-12-14T06:24:19.046Z,42.30
2018-12-14T06:25:19.050Z,45.80
2018-12-14T06:26:19.046Z,40.70
2018-12-14T06:27:19.035Z,39.10
2018-12-14T06:28:19.046Z,45.20
2018-12-14T06:29:19.043Z,40.20
2018-12-14T06:30:19.049Z,44.80
2018-12-14T06:31:19.078Z,39.10
2018-12-14T06:32:19.055Z,42.10
2018-12-14T06:33:19.055Z,42.40
2018-12-14T06:34:19.045Z,44.90
2018-12-14T06:35:19.043Z,40.40
2018-12-14T06:36:19.043Z,41.00
2018-12-14T06:37:19.053Z,39.40
2018-12-14T06:38:19.043Z,40.90
2018-12-14T06:39:19.046Z,42.10
2018-12-14T06:40:19.054Z,42.50
2018-12-14T06:41:19.040Z,41.60
2018-12-14T06:42:19.047Z,36.30
2018-12-14T06:43:19.050Z,36.80
2018-12-14T06:44:19.075Z,41.80
2018-12-14T06:45:19.043Z,40.60
2018-12-14T06:46:19.045Z,38.80
2018-12-14T06:47:19.036Z,37.10
2018-12-14T06:48:19.045Z,37.30
2018-12-14T06:49:19.063Z,37.80
2018-12-14T06:50:19.043Z,37.30
2018-12-14T06:51:19.056Z,38.80
2018-12-14T06:52:19.050Z,36.20
2018-12-14T06:53:19.055Z,36.50
2018-12-14T06:54:19.048Z,36.80
2018-12-14T06:55:19.040Z,37.60
2018-12-14T06:56:19.049Z,37.10
2018-12-14T06:57:19.046Z,40.30
2018-12-14T06:58:19.045Z,39.30
2018-12-14T06:59:19.046Z,36.10
2018-12-14T07:00:19.056Z,42.90
2018-12-14T07:01:19.050Z,36.50
2018-12-14T07:02:19.053Z,35.60
2018-12-14T07:03:19.042Z,35.50
2018-12-14T07:04:19.046Z,37.50
2018-12-14T07:05:19.052Z,37.60
2018-12-14T07:06:19.049Z,37.00
2018-12-14T07:07:19.060Z,35.10
2018-12-14T07:08:19.062Z,37.60
2018-12-14T07:09:19.042Z,37.00
2018-12-14T07:10:19.042Z,36.90
2018-12-14T07:11:19.054Z,40.20
2018-12-14T07:12:19.045Z,35.00
2018-12-14T07:13:21.890Z,37.60
2018-12-14T07:14:19.056Z,34.90
2018-12-14T07:15:19.048Z,36.70
2018-12-14T07:16:19.055Z,35.40
2018-12-14T07:17:19.078Z,42.40
2018-12-14T07:18:19.076Z,35.60
2018-12-14T07:19:19.142Z,35.60
2018-12-14T07:20:19.061Z,38.50
2018-12-14T07:21:19.055Z,35.10
2018-12-14T07:22:19.068Z,33.70
2018-12-14T07:23:19.051Z,37.10
2018-12-14T07:24:19.045Z,35.80
2018-12-14T07:26:19.051Z,36.80
2018-12-14T07:27:19.078Z,38.20
2018-12-14T07:28:19.058Z,40.00
2018-12-14T07:29:19.054Z,36.20
2018-12-14T07:30:19.054Z,36.60
2018-12-14T07:31:19.056Z,39.20
2018-12-14T07:32:19.060Z,37.40
2018-12-14T07:33:19.059Z,40.00
2018-12-14T07:34:19.059Z,37.90
2018-12-14T07:35:19.055Z,39.40
2018-12-14T07:36:19.062Z,36.60
2018-12-14T07:37:19.045Z,38.70
2018-12-14T07:38:19.046Z,41.40
2018-12-14T07:39:19.050Z,36.20
2018-12-14T07:40:19.053Z,36.60
2018-12-14T07:41:19.060Z,39.70
2018-12-14T07:42:19.065Z,36.40
2018-12-14T07:43:19.077Z,39.60
2018-12-14T07:44:19.090Z,38.60
2018-12-14T07:45:19.083Z,37.80
2018-12-14T07:47:19.062Z,37.80
2018-12-14T07:48:19.104Z,38.20
2018-12-14T07:49:19.055Z,39.10
2018-12-14T07:50:19.063Z,39.50
2018-12-14T07:51:19.072Z,39.50
2018-12-14T07:53:19.050Z,43.00
2018-12-14T07:54:19.056Z,38.50
2018-12-14T07:55:19.062Z,38.80
2018-12-14T07:56:19.064Z,38.30
2018-12-14T07:57:19.076Z,39.30
2018-12-14T07:58:19.097Z,41.00
2018-12-14T07:59:19.063Z,40.40
2018-12-14T08:00:19.129Z,37.90
2018-12-14T08:01:19.072Z,40.10
2018-12-14T08:02:19.081Z,38.80
2018-12-14T08:03:19.069Z,39.60
2018-12-14T08:05:40.515Z,41.10
2018-12-14T08:16:30.983Z,39.50
2018-12-14T08:17:30.976Z,40.90
2018-12-14T08:18:30.972Z,40.70
2018-12-14T08:19:31.075Z,40.10
2018-12-14T08:20:30.980Z,39.10
2018-12-14T08:21:30.988Z,40.70
2018-12-14T08:22:31.001Z,37.80
2018-12-14T08:23:30.970Z,40.10
2018-12-14T08:24:30.997Z,40.00
2018-12-14T08:25:30.972Z,37.60
2018-12-14T08:26:31.408Z,38.20
2018-12-14T08:27:30.970Z,37.00
2018-12-14T08:28:30.977Z,38.20
2018-12-14T08:29:30.990Z,39.70
2018-12-14T08:30:30.988Z,39.00
2018-12-14T08:31:30.983Z,38.70
2018-12-14T08:32:30.992Z,38.60
2018-12-14T08:33:30.971Z,37.00
2018-12-14T08:34:30.983Z,38.30
2018-12-14T08:36:30.977Z,39.00
2018-12-14T08:37:31.006Z,38.40
2018-12-14T08:38:30.983Z,39.70
2018-12-14T08:39:30.977Z,36.60
2018-12-14T08:40:31.001Z,36.20
2018-12-14T08:41:30.986Z,39.20
2018-12-14T08:42:30.990Z,36.70
2018-12-14T08:43:30.982Z,37.30
2018-12-14T08:44:30.986Z,35.70
2018-12-14T08:45:30.990Z,35.30
2018-12-14T08:46:31.000Z,37.50
2018-12-14T08:47:31.009Z,36.60
2018-12-14T08:48:31.005Z,36.20
2018-12-14T08:49:31.001Z,36.60
2018-12-14T08:50:31.003Z,36.50
2018-12-14T08:51:30.991Z,38.60
2018-12-14T08:52:31.006Z,36.10
2018-12-14T08:53:31.019Z,38.70
2018-12-14T08:54:30.999Z,38.50
2018-12-14T08:55:31.003Z,37.80
2018-12-14T08:56:30.990Z,40.80
2018-12-14T08:57:30.988Z,36.70
2018-12-14T08:58:30.999Z,35.60
2018-12-14T08:59:30.996Z,34.30
2018-12-14T09:00:31.000Z,36.00
2018-12-14T09:01:31.000Z,36.90
2018-12-14T09:02:31.006Z,34.60
2018-12-14T09:03:31.009Z,35.00
2018-12-14T09:04:31.015Z,35.00
2018-12-14T09:05:31.042Z,37.00
2018-12-14T09:06:31.005Z,33.80
2018-12-14T09:07:31.004Z,34.50
2018-12-14T09:08:31.012Z,34.30
2018-12-14T09:09:31.016Z,34.80
2018-12-14T09:10:31.013Z,34.60
2018-12-14T09:11:31.018Z,34.90
2018-12-14T09:12:31.024Z,37.90
2018-12-14T09:13:31.006Z,32.80
2018-12-14T09:14:31.016Z,33.30
2018-12-14T09:16:31.015Z,33.60
2018-12-14T09:17:31.016Z,34.10
2018-12-14T09:18:31.013Z,33.50
2018-12-14T09:19:31.025Z,35.80
2018-12-14T09:20:31.036Z,34.10
2018-12-14T09:21:31.036Z,34.50
2018-12-14T09:22:31.029Z,36.60
2018-12-14T09:23:31.028Z,33.70
2018-12-14T09:24:31.089Z,35.50
2018-12-14T09:25:31.040Z,33.30
2018-12-14T09:26:31.024Z,32.20
2018-12-14T09:27:31.039Z,33.00
2018-12-14T09:28:31.033Z,34.10
2018-12-14T09:29:31.047Z,34.60
2018-12-14T09:31:31.055Z,33.80
2018-12-14T09:32:31.047Z,34.00
2018-12-14T09:33:31.031Z,34.80
2018-12-14T09:34:31.036Z,32.00
2018-12-14T09:35:31.043Z,33.20
2018-12-14T09:36:31.042Z,30.30
2018-12-14T09:37:31.064Z,33.20
2018-12-14T09:38:31.048Z,34.80
2018-12-14T09:39:31.059Z,32.70
2018-12-14T09:40:31.085Z,31.10
2018-12-14T09:41:31.054Z,31.60
2018-12-14T09:42:31.045Z,34.60
2018-12-14T09:43:31.051Z,33.90
2018-12-14T09:44:31.052Z,30.30
2018-12-14T09:45:31.115Z,31.10
2018-12-14T09:46:36.898Z,29.70
2018-12-14T09:47:31.066Z,29.40
2018-12-14T09:48:31.066Z,29.40
2018-12-14T09:49:31.060Z,30.20
2018-12-14T09:50:31.058Z,32.60
2018-12-14T09:51:31.065Z,27.90
2018-12-14T09:52:31.059Z,29.60
2018-12-14T09:54:31.060Z,28.50
2018-12-14T09:55:31.065Z,29.20
2018-12-14T09:56:31.073Z,26.70
2018-12-14T09:58:31.084Z,28.40
2018-12-14T09:59:31.098Z,29.80
2018-12-14T10:00:31.078Z,25.10
2018-12-14T10:01:31.151Z,26.30
2018-12-14T10:02:31.090Z,26.60
2018-12-14T10:03:31.097Z,28.50
2018-12-14T10:04:31.090Z,26.30
2018-12-14T10:05:31.087Z,27.20
2018-12-14T10:06:31.091Z,24.80
2018-12-14T10:07:31.091Z,27.30
2018-12-14T10:08:31.109Z,26.00
2018-12-14T10:09:31.094Z,27.10
2018-12-14T10:10:31.097Z,26.50
2018-12-14T10:11:31.105Z,24.50
2018-12-14T10:12:31.115Z,27.10
2018-12-14T10:13:31.111Z,25.30
2018-12-14T10:14:31.105Z,24.30
2018-12-14T10:15:31.106Z,24.60
2018-12-14T10:16:31.147Z,23.90
2018-12-14T10:17:31.116Z,26.00
2018-12-14T10:18:31.156Z,24.00
2018-12-14T10:19:31.119Z,24.20
2018-12-14T10:20:31.122Z,23.50
2018-12-14T10:21:31.121Z,27.60
2018-12-14T10:22:31.106Z,22.20
2018-12-14T10:23:31.130Z,24.70
2018-12-14T10:24:31.130Z,24.70
2018-12-14T10:25:31.118Z,24.50
2018-12-14T10:26:31.122Z,23.60
2018-12-14T10:27:31.120Z,23.30
2018-12-14T10:28:31.228Z,21.20
2018-12-14T10:29:31.163Z,22.30
2018-12-14T10:30:31.157Z,27.80
2018-12-14T10:31:31.151Z,24.20
2018-12-14T10:32:31.135Z,24.30
2018-12-14T10:33:31.163Z,26.50
2018-12-14T10:34:31.134Z,30.70
2018-12-14T10:35:31.144Z,22.70
2018-12-14T10:36:31.154Z,23.60
2018-12-14T10:37:31.164Z,26.30
2018-12-14T10:38:31.156Z,25.00
2018-12-14T10:39:31.166Z,20.00
2018-12-14T10:40:31.154Z,21.60
2018-12-14T10:41:31.175Z,25.40
2018-12-14T10:42:31.183Z,25.30
2018-12-14T10:43:31.169Z,22.10
2018-12-14T10:44:31.195Z,23.70
2018-12-14T10:45:31.171Z,25.00
2018-12-14T10:46:31.173Z,19.20
2018-12-14T10:47:31.167Z,24.00
2018-12-14T10:48:31.190Z,25.10
2018-12-14T10:49:31.190Z,23.00
2018-12-14T10:50:38.590Z,19.70
2018-12-14T10:51:31.200Z,25.30
2018-12-14T10:52:31.195Z,24.30
2018-12-14T10:53:31.182Z,24.20
2018-12-14T10:54:31.185Z,21.50
2018-12-14T10:55:31.192Z,20.30
2018-12-14T10:56:31.199Z,26.40
2018-12-14T10:57:31.213Z,22.60
2018-12-14T10:58:31.197Z,24.00
2018-12-14T10:59:31.202Z,21.80
2018-12-14T11:00:31.200Z,20.90
2018-12-14T11:01:31.205Z,24.60
2018-12-14T11:02:31.221Z,21.00
2018-12-14T11:03:31.203Z,23.50
2018-12-14T11:04:31.220Z,18.40
2018-12-14T11:05:31.213Z,20.90
2018-12-14T11:06:31.221Z,22.30
2018-12-14T11:07:31.223Z,24.90
2018-12-14T11:08:31.226Z,23.60
2018-12-14T11:09:31.224Z,25.00
2018-12-14T11:10:31.238Z,22.80
2018-12-14T11:11:31.338Z,24.40
2018-12-14T11:12:31.234Z,21.10
2018-12-14T11:13:31.263Z,23.20
2018-12-14T11:14:31.240Z,21.60
2018-12-14T11:15:31.253Z,26.00
2018-12-14T11:16:31.265Z,28.40
2018-12-14T11:17:31.258Z,27.00
2018-12-14T11:18:31.256Z,25.50
2018-12-14T11:19:31.258Z,23.90
2018-12-14T11:21:31.268Z,24.30
2018-12-14T11:22:31.259Z,24.20
2018-12-14T11:24:31.269Z,22.90
2018-12-14T11:25:31.267Z,20.50
2018-12-14T11:26:31.275Z,22.10
2018-12-14T11:27:31.275Z,22.30
2018-12-14T11:29:31.430Z,24.90
2018-12-14T11:30:31.278Z,22.80
2018-12-14T11:31:31.281Z,27.80
2018-12-14T11:32:31.288Z,22.80
2018-12-14T11:33:31.297Z,23.90
2018-12-14T11:35:31.298Z,23.70
2018-12-14T11:37:31.300Z,22.00
2018-12-14T11:38:31.301Z,25.60
2018-12-14T11:39:31.304Z,25.90
2018-12-14T11:40:31.310Z,20.40
2018-12-14T11:41:31.314Z,21.40
2018-12-14T11:42:31.314Z,26.10
2018-12-14T11:43:31.323Z,24.10
2018-12-14T11:44:31.324Z,23.10
2018-12-14T11:45:31.329Z,24.80
2018-12-14T11:46:31.345Z,23.00
2018-12-14T11:48:31.333Z,22.90
2018-12-14T11:49:31.348Z,26.50
2018-12-14T11:50:31.362Z,20.70
2018-12-14T11:51:31.345Z,20.70
2018-12-14T11:52:31.340Z,26.60
2018-12-14T11:53:31.361Z,22.00
2018-12-14T11:54:31.341Z,22.50
2018-12-14T11:55:31.343Z,24.20
2018-12-14T11:56:31.352Z,22.40
2018-12-14T11:57:31.364Z,22.80
2018-12-14T11:58:31.370Z,23.40
2018-12-14T11:59:31.355Z,25.50
2018-12-14T12:00:31.372Z,27.10
2018-12-14T12:01:31.371Z,22.20
2018-12-14T12:02:31.382Z,25.80
2018-12-14T12:03:31.374Z,23.70
2018-12-14T12:04:31.395Z,22.90
2018-12-14T12:05:31.386Z,23.60
2018-12-14T12:06:31.390Z,21.30
2018-12-14T12:07:31.391Z,22.70
2018-12-14T12:08:31.396Z,31.50
2018-12-14T12:09:31.393Z,23.10
2018-12-14T12:10:31.402Z,21.90
2018-12-14T12:11:31.399Z,23.60
2018-12-14T12:12:31.395Z,24.60
2018-12-14T12:13:31.401Z,23.30
2018-12-14T12:14:31.407Z,26.30
2018-12-14T12:15:31.414Z,23.60
2018-12-14T12:16:31.424Z,22.10
2018-12-14T12:17:31.415Z,21.20
2018-12-14T12:18:31.413Z,21.80
2018-12-14T12:19:31.429Z,24.70
2018-12-14T12:20:31.424Z,21.50
2018-12-14T12:21:31.432Z,20.60
2018-12-14T12:22:31.434Z,21.00
2018-12-14T12:23:31.436Z,22.70
2018-12-14T12:24:31.432Z,22.50
2018-12-14T12:25:31.439Z,22.10
2018-12-14T12:26:31.441Z,21.60
2018-12-14T12:27:31.440Z,21.20
2018-12-14T12:28:31.451Z,22.50
2018-12-14T12:29:31.447Z,22.00
2018-12-14T12:30:31.447Z,21.40
2018-12-14T12:31:31.456Z,19.50
2018-12-14T12:32:31.461Z,20.90
2018-12-14T12:33:31.565Z,20.80
2018-12-14T12:34:31.454Z,21.30
2018-12-14T12:35:31.465Z,23.10
2018-12-14T12:36:31.473Z,20.50
2018-12-14T12:37:31.467Z,28.50
2018-12-14T12:38:37.950Z,24.40
2018-12-14T12:39:31.476Z,23.00
2018-12-14T12:40:31.473Z,26.30
2018-12-14T12:41:31.475Z,22.90
2018-12-14T12:42:31.487Z,25.20
2018-12-14T12:43:31.486Z,23.90
2018-12-14T12:44:33.650Z,21.20
2018-12-14T12:45:31.495Z,21.50
2018-12-14T12:46:31.491Z,26.20
2018-12-14T12:47:31.536Z,21.60
2018-12-14T12:48:31.495Z,25.70
2018-12-14T12:49:31.505Z,23.40
2018-12-14T12:50:31.506Z,23.70
2018-12-14T12:51:31.524Z,21.00
2018-12-14T12:52:31.515Z,22.30
2018-12-14T12:53:31.510Z,24.50
2018-12-14T12:54:31.508Z,21.40
2018-12-14T12:55:31.515Z,24.10
2018-12-14T12:57:31.524Z,23.60
2018-12-14T12:58:31.529Z,21.30
2018-12-14T12:59:31.541Z,19.80
2018-12-14T13:00:31.550Z,20.80
2018-12-14T13:01:31.530Z,22.30
2018-12-14T13:02:31.534Z,22.10
2018-12-14T13:03:31.537Z,22.40
2018-12-14T13:04:31.538Z,25.90
2018-12-14T13:05:34.870Z,21.60
2018-12-14T13:06:31.539Z,21.40
2018-12-14T13:07:31.546Z,20.80
2018-12-14T13:08:31.550Z,21.10
2018-12-14T13:09:31.548Z,20.70
2018-12-14T13:10:31.549Z,24.40
2018-12-14T13:11:31.556Z,23.90
2018-12-14T13:12:31.554Z,22.70
2018-12-14T13:13:31.564Z,24.50
2018-12-14T13:14:31.563Z,22.20
2018-12-14T13:15:31.559Z,22.50
2018-12-14T13:16:31.563Z,25.00
2018-12-14T13:17:31.577Z,21.90
2018-12-14T13:18:31.572Z,21.60
2018-12-14T13:19:31.572Z,22.80
2018-12-14T13:20:31.573Z,23.80
2018-12-14T13:21:31.571Z,24.80
2018-12-14T13:22:31.575Z,20.60
2018-12-14T13:23:31.576Z,23.40
2018-12-14T13:24:31.624Z,19.50
2018-12-14T13:26:31.591Z,23.10
2018-12-14T13:27:31.595Z,22.70